Time;durP1;ratioP1;P1;durP2;ratioP2;P2;SDS_P1;SDS_P2;PMS_P1;PMS_P2;Temp;Humidity;BMP_temperature;BMP_pressure;BME280_temperature;BME280_humidity;BME280_pressure;Samples;Min_cycle;Max_cycle;Signal;HPM_P1;HPM_P2
2024/03/09 00:00:04;;;;;;;28.10;11.63;;;;;;;;;;5841249;28;20049;-80
2024/03/09 00:02:59;;;;;;;27.77;11.55;;;;;;;;;;5824315;28;20056;-80
2024/03/09 00:05:51;;;;;;;24.35;11.15;;;;;;;;;;5840603;28;20049;-80
2024/03/09 00:08:43;;;;;;;27.70;13.95;;;;;;;;;;5823539;28;20052;-80
2024/03/09 00:11:35;;;;;;;22.98;9.77;;;;;;;;;;5839764;28;20129;-80
2024/03/09 00:14:26;;;;;;;25.35;9.10;;;;;;;;;;5839495;28;20120;-80
2024/03/09 00:17:17;;;;;;;21.58;9.20;;;;;;;;;;5839169;28;20057;-80
2024/03/09 00:20:15;;;;;;;25.25;9.38;;;;;;;;;;5840929;28;20057;-80
2024/03/09 00:23:07;;;;;;;19.50;9.00;;;;;;;;;;5840644;28;20432;-79
2024/03/09 00:25:59;;;;;;;18.48;7.45;;;;;;;;;;5841227;28;20057;-80
2024/03/09 00:28:50;;;;;;;36.08;10.63;;;;;;;;;;5854586;28;20419;-80
2024/03/09 00:31:44;;;;;;;26.77;10.57;;;;;;;;;;5878363;28;20041;-79
2024/03/09 00:34:35;;;;;;;15.10;8.07;;;;;;;;;;5862122;28;20049;-80
2024/03/09 00:37:25;;;;;;;25.23;10.75;;;;;;;;;;5862275;28;20053;-80
2024/03/09 00:40:17;;;;;;;15.95;9.25;;;;;;;;;;5829655;28;20052;-80
2024/03/09 00:43:08;;;;;;;16.92;8.02;;;;;;;;;;5861803;28;20061;-80
2024/03/09 00:45:58;;;;;;;15.27;6.95;;;;;;;;;;5862716;28;20062;-80
2024/03/09 00:48:49;;;;;;;9.07;5.90;;;;;;;;;;5855325;28;20595;-80
2024/03/09 00:51:40;;;;;;;13.18;6.10;;;;;;;;;;5863422;28;20045;-80
2024/03/09 00:54:31;;;;;;;13.88;7.13;;;;;;;;;;5878266;28;20045;-80
2024/03/09 00:57:22;;;;;;;14.18;6.90;;;;;;;;;;5861758;28;20503;-80
2024/03/09 01:00:18;;;;;;;13.05;8.93;;;;;;;;;;5863153;28;20049;-80
2024/03/09 01:03:08;;;;;;;16.13;7.32;;;;;;;;;;5861509;28;20053;-80
2024/03/09 01:06:00;;;;;;;14.40;6.65;;;;;;;;;;5862436;28;20121;-80
2024/03/09 01:08:51;;;;;;;18.73;9.40;;;;;;;;;;5839040;28;20048;-80
2024/03/09 01:11:42;;;;;;;25.58;10.20;;;;;;;;;;5840106;28;20046;-80
2024/03/09 01:14:32;;;;;;;27.60;8.23;;;;;;;;;;5871653;28;20520;-80
2024/03/09 01:17:23;;;;;;;19.20;7.85;;;;;;;;;;5839939;28;20042;-80
2024/03/09 01:20:14;;;;;;;18.25;9.55;;;;;;;;;;5840350;28;20050;-80
2024/03/09 01:23:05;;;;;;;11.25;6.55;;;;;;;;;;5855196;28;20586;-80
2024/03/09 01:25:56;;;;;;;16.48;7.40;;;;;;;;;;5839499;28;20420;-80
2024/03/09 01:28:47;;;;;;;24.08;8.18;;;;;;;;;;5838293;28;20042;-80
2024/03/09 01:31:38;;;;;;;13.70;6.57;;;;;;;;;;5839571;28;20049;-80
2024/03/09 01:34:30;;;;;;;35.33;12.27;;;;;;;;;;5854821;28;20076;-80
2024/03/09 01:37:22;;;;;;;33.20;14.20;;;;;;;;;;5854579;28;20397;-80
2024/03/09 01:40:13;;;;;;;50.63;17.25;;;;;;;;;;5854977;28;20590;-80
2024/03/09 01:43:04;;;;;;;69.50;21.95;;;;;;;;;;5854414;28;20180;-80
2024/03/09 01:45:55;;;;;;;31.27;13.02;;;;;;;;;;5855325;28;20137;-81
2024/03/09 01:48:48;;;;;;;83.35;23.02;;;;;;;;;;5854676;28;20120;-81
2024/03/09 01:51:45;;;;;;;65.88;18.77;;;;;;;;;;5839625;28;20042;-81
2024/03/09 01:54:38;;;;;;;42.80;14.35;;;;;;;;;;5869128;28;20065;-81
2024/03/09 01:57:35;;;;;;;39.35;17.83;;;;;;;;;;5838539;28;20049;-81
2024/03/09 02:00:26;;;;;;;36.60;12.85;;;;;;;;;;5840102;28;20046;-81
2024/03/09 02:03:19;;;;;;;37.30;14.82;;;;;;;;;;5854499;28;20053;-81
2024/03/09 02:06:11;;;;;;;16.30;7.55;;;;;;;;;;5838786;28;20045;-81
2024/03/09 02:09:07;;;;;;;54.05;19.13;;;;;;;;;;5838095;28;20046;-79
2024/03/09 02:12:05;;;;;;;61.15;25.30;;;;;;;;;;5853875;28;20183;-80
2024/03/09 02:14:55;;;;;;;46.47;13.75;;;;;;;;;;5839233;28;20054;-80
2024/03/09 02:17:47;;;;;;;28.92;12.05;;;;;;;;;;5837966;28;20046;-81
2024/03/09 02:20:40;;;;;;;28.35;10.10;;;;;;;;;;5838067;28;20045;-81
2024/03/09 02:23:31;;;;;;;16.25;6.78;;;;;;;;;;5837955;28;20056;-81
2024/03/09 02:26:22;;;;;;;15.23;7.43;;;;;;;;;;5838077;28;20053;-81
2024/03/09 02:29:13;;;;;;;44.95;15.77;;;;;;;;;;5837732;28;20065;-81
2024/03/09 02:32:04;;;;;;;43.15;15.02;;;;;;;;;;5837581;28;20385;-81
2024/03/09 02:34:56;;;;;;;27.45;10.00;;;;;;;;;;5837881;28;20050;-80
2024/03/09 02:37:47;;;;;;;27.20;11.60;;;;;;;;;;5837847;28;20180;-81
2024/03/09 02:40:38;;;;;;;17.65;7.32;;;;;;;;;;5841868;28;20081;-80
2024/03/09 02:43:29;;;;;;;16.10;7.32;;;;;;;;;;5841982;28;20056;-81
2024/03/09 02:46:21;;;;;;;24.40;8.68;;;;;;;;;;5841722;28;20188;-80
2024/03/09 02:49:12;;;;;;;21.08;6.00;;;;;;;;;;5841907;28;20073;-81
2024/03/09 02:52:04;;;;;;;18.65;7.30;;;;;;;;;;5841557;28;20069;-80
2024/03/09 02:54:55;;;;;;;15.25;7.25;;;;;;;;;;5843487;28;20057;-80
2024/03/09 02:57:49;;;;;;;17.05;8.00;;;;;;;;;;5841448;28;20389;-80
2024/03/09 03:00:42;;;;;;;9.20;5.55;;;;;;;;;;5841706;28;20046;-80
2024/03/09 03:03:56;;;;;;;21.50;8.85;;;;;;;;;;5841560;28;20054;-81
2024/03/09 03:06:48;;;;;;;14.52;6.03;;;;;;;;;;5844278;28;20038;-80
2024/03/09 03:09:44;;;;;;;13.18;6.32;;;;;;;;;;5857906;28;20048;-80
2024/03/09 03:12:34;;;;;;;10.23;4.93;;;;;;;;;;5841069;28;20096;-81
2024/03/09 03:15:25;;;;;;;11.32;6.03;;;;;;;;;;5841268;28;20463;-80
2024/03/09 03:18:16;;;;;;;10.80;7.80;;;;;;;;;;5841325;28;20065;-81
2024/03/09 03:21:07;;;;;;;15.48;7.63;;;;;;;;;;5840897;28;20054;-80
2024/03/09 03:23:58;;;;;;;15.57;5.30;;;;;;;;;;5857726;28;20053;-80
2024/03/09 03:26:49;;;;;;;13.90;6.78;;;;;;;;;;5840952;28;20041;-80
2024/03/09 03:29:40;;;;;;;19.27;6.25;;;;;;;;;;5841024;28;20137;-80
2024/03/09 03:32:31;;;;;;;22.95;9.88;;;;;;;;;;5840664;28;20057;-80
2024/03/09 03:35:24;;;;;;;19.05;9.77;;;;;;;;;;5840713;28;20079;-80
2024/03/09 03:38:15;;;;;;;24.35;9.50;;;;;;;;;;5840646;28;20050;-80
2024/03/09 03:41:08;;;;;;;13.65;7.38;;;;;;;;;;5841183;28;20080;-80
2024/03/09 03:43:59;;;;;;;14.43;8.32;;;;;;;;;;5841139;28;20050;-81
2024/03/09 03:46:50;;;;;;;12.93;7.13;;;;;;;;;;5840518;28;20133;-80
2024/03/09 03:49:41;;;;;;;12.45;6.60;;;;;;;;;;5856644;28;20058;-80
2024/03/09 03:52:32;;;;;;;18.27;7.70;;;;;;;;;;5840860;28;20045;-81
2024/03/09 03:55:24;;;;;;;17.25;7.45;;;;;;;;;;5840558;28;20042;-81
2024/03/09 03:58:17;;;;;;;12.13;6.97;;;;;;;;;;5841122;28;20050;-81
2024/03/09 04:01:08;;;;;;;17.05;8.40;;;;;;;;;;5840856;28;20523;-81
2024/03/09 04:03:59;;;;;;;23.95;10.95;;;;;;;;;;5842425;28;20500;-81
2024/03/09 04:06:50;;;;;;;23.45;10.52;;;;;;;;;;5864108;28;20052;-81
2024/03/09 04:09:41;;;;;;;15.15;8.80;;;;;;;;;;5863496;28;20049;-81
2024/03/09 04:12:40;;;;;;;14.55;8.07;;;;;;;;;;5863069;28;20049;-81
2024/03/09 04:15:33;;;;;;;12.00;7.22;;;;;;;;;;5864487;28;20053;-81
2024/03/09 04:18:28;;;;;;;13.57;7.18;;;;;;;;;;5879306;28;20052;-81
2024/03/09 04:21:19;;;;;;;16.65;8.65;;;;;;;;;;5856976;28;20512;-81
2024/03/09 04:24:10;;;;;;;17.15;9.80;;;;;;;;;;5839875;28;20049;-80
2024/03/09 04:27:03;;;;;;;25.30;9.73;;;;;;;;;;5856247;28;20045;-80
2024/03/09 04:29:55;;;;;;;17.65;8.63;;;;;;;;;;5840406;28;20399;-81
2024/03/09 04:32:46;;;;;;;14.77;7.85;;;;;;;;;;5823589;28;20042;-81
2024/03/09 04:35:39;;;;;;;16.05;7.53;;;;;;;;;;5839665;28;20408;-81
2024/03/09 04:38:34;;;;;;;16.88;7.20;;;;;;;;;;5871417;28;20046;-81
2024/03/09 04:41:25;;;;;;;21.65;10.38;;;;;;;;;;5872196;28;20050;-81
2024/03/09 04:44:16;;;;;;;16.48;8.95;;;;;;;;;;5872344;28;20049;-81
2024/03/09 04:47:18;;;;;;;18.25;10.23;;;;;;;;;;5854707;28;20128;-81
2024/03/09 04:50:10;;;;;;;21.45;10.20;;;;;;;;;;5839319;28;20045;-81
2024/03/09 04:53:06;;;;;;;21.05;7.97;;;;;;;;;;5855426;28;20142;-80
2024/03/09 04:55:57;;;;;;;25.63;8.23;;;;;;;;;;5855814;28;20128;-80
2024/03/09 04:58:51;;;;;;;10.35;7.22;;;;;;;;;;5862637;28;20042;-81
2024/03/09 05:01:45;;;;;;;26.23;9.77;;;;;;;;;;5854400;28;20050;-81
2024/03/09 05:04:36;;;;;;;24.23;7.72;;;;;;;;;;5854914;28;20159;-81
2024/03/09 05:07:27;;;;;;;17.83;7.93;;;;;;;;;;5838824;28;20046;-80
2024/03/09 05:10:19;;;;;;;23.85;8.55;;;;;;;;;;5838709;28;20128;-81
2024/03/09 05:13:10;;;;;;;21.08;8.15;;;;;;;;;;5838855;28;20053;-81
2024/03/09 05:16:01;;;;;;;13.55;7.45;;;;;;;;;;5838581;28;20052;-79
2024/03/09 05:18:52;;;;;;;20.98;9.00;;;;;;;;;;5838844;28;20053;-81
2024/03/09 05:21:44;;;;;;;19.85;7.18;;;;;;;;;;5838589;28;20092;-80
2024/03/09 05:24:35;;;;;;;16.23;7.97;;;;;;;;;;5838711;28;20052;-80
2024/03/09 05:27:26;;;;;;;19.77;8.15;;;;;;;;;;5854983;28;20049;-80
2024/03/09 05:30:20;;;;;;;12.23;7.45;;;;;;;;;;5838546;28;20057;-81
2024/03/09 05:33:11;;;;;;;14.32;7.93;;;;;;;;;;5838742;28;20058;-81
2024/03/09 05:36:03;;;;;;;16.17;8.60;;;;;;;;;;5838458;28;20058;-80
2024/03/09 05:38:54;;;;;;;23.13;8.02;;;;;;;;;;5838513;28;20056;-81
2024/03/09 05:41:50;;;;;;;16.27;8.38;;;;;;;;;;5838361;28;20052;-81
2024/03/09 05:44:41;;;;;;;15.65;6.28;;;;;;;;;;5839360;28;20129;-81
2024/03/09 05:47:31;;;;;;;15.00;7.15;;;;;;;;;;5837665;28;20396;-81
2024/03/09 05:50:30;;;;;;;14.15;7.47;;;;;;;;;;5838194;28;20042;-81
2024/03/09 05:53:26;;;;;;;17.88;8.55;;;;;;;;;;5839960;28;20393;-81
2024/03/09 05:56:17;;;;;;;14.02;7.35;;;;;;;;;;5838993;28;20132;-81
2024/03/09 05:59:08;;;;;;;13.48;7.30;;;;;;;;;;5854408;28;20049;-81
2024/03/09 06:01:58;;;;;;;15.30;7.45;;;;;;;;;;5855062;28;20045;-81
2024/03/09 06:04:49;;;;;;;10.80;6.57;;;;;;;;;;5861335;28;20067;-81
2024/03/09 06:07:44;;;;;;;20.95;8.38;;;;;;;;;;5862642;28;20046;-81
2024/03/09 06:10:35;;;;;;;9.65;7.32;;;;;;;;;;5856345;28;20046;-82
2024/03/09 06:13:33;;;;;;;19.23;9.50;;;;;;;;;;5855158;28;20575;-81
2024/03/09 06:16:24;;;;;;;19.05;8.55;;;;;;;;;;5842603;28;20049;-81
2024/03/09 06:19:15;;;;;;;12.30;7.07;;;;;;;;;;5859049;28;20050;-81
2024/03/09 06:22:06;;;;;;;19.77;7.05;;;;;;;;;;5842838;28;20053;-81
2024/03/09 06:24:57;;;;;;;18.05;8.95;;;;;;;;;;5843115;28;20058;-82
2024/03/09 06:27:53;;;;;;;10.65;7.07;;;;;;;;;;5842523;28;20132;-82
2024/03/09 06:30:45;;;;;;;16.50;9.05;;;;;;;;;;5843899;28;20124;-81
2024/03/09 06:33:37;;;;;;;23.10;9.45;;;;;;;;;;5842600;28;20053;-82
2024/03/09 06:36:28;;;;;;;12.93;9.27;;;;;;;;;;5842534;28;20046;-82
2024/03/09 06:39:19;;;;;;;10.38;6.25;;;;;;;;;;5858933;28;20523;-82
2024/03/09 06:42:09;;;;;;;13.43;7.55;;;;;;;;;;5859861;28;20479;-81
2024/03/09 06:45:00;;;;;;;12.23;6.93;;;;;;;;;;5842238;28;20049;-78
2024/03/09 06:47:51;;;;;;;10.20;5.65;;;;;;;;;;5842665;28;20054;-82
2024/03/09 06:50:46;;;;;;;11.25;6.43;;;;;;;;;;5858226;28;20046;-81
2024/03/09 06:53:37;;;;;;;11.80;5.45;;;;;;;;;;5843023;28;20060;-84
2024/03/09 06:56:27;;;;;;;14.43;7.13;;;;;;;;;;5842098;28;20045;-81
2024/03/09 06:59:19;;;;;;;8.85;5.95;;;;;;;;;;5858075;28;20065;-82
2024/03/09 07:02:10;;;;;;;9.18;5.35;;;;;;;;;;5843122;28;20056;-81
2024/03/09 07:05:01;;;;;;;8.60;6.05;;;;;;;;;;5841891;28;20042;-81
2024/03/09 07:07:52;;;;;;;14.45;7.28;;;;;;;;;;5842011;28;20054;-81
2024/03/09 07:10:43;;;;;;;10.88;7.50;;;;;;;;;;5841557;28;20049;-81
2024/03/09 07:13:33;;;;;;;9.57;7.28;;;;;;;;;;5841446;28;20078;-81
2024/03/09 07:16:25;;;;;;;15.07;6.65;;;;;;;;;;5841518;28;20449;-80
2024/03/09 07:19:16;;;;;;;10.43;6.40;;;;;;;;;;5841549;28;20416;-81
2024/03/09 07:22:07;;;;;;;11.40;7.25;;;;;;;;;;5841339;28;20046;-80
2024/03/09 07:24:57;;;;;;;11.50;6.47;;;;;;;;;;5857124;28;20049;-80
2024/03/09 07:27:48;;;;;;;13.65;7.47;;;;;;;;;;5841462;28;20046;-80
2024/03/09 07:30:40;;;;;;;12.25;7.50;;;;;;;;;;5841690;28;20053;-80
2024/03/09 07:33:32;;;;;;;11.40;7.20;;;;;;;;;;5842114;28;20046;-80
2024/03/09 07:36:23;;;;;;;18.55;10.23;;;;;;;;;;5840951;28;20129;-80
2024/03/09 07:39:15;;;;;;;13.75;8.02;;;;;;;;;;5841162;28;20046;-80
2024/03/09 07:42:09;;;;;;;20.02;10.30;;;;;;;;;;5841218;28;20085;-79
2024/03/09 07:45:00;;;;;;;15.90;9.65;;;;;;;;;;5841836;28;20049;-80
2024/03/09 07:47:51;;;;;;;12.95;7.65;;;;;;;;;;5865525;28;20038;-80
2024/03/09 07:50:46;;;;;;;19.02;9.70;;;;;;;;;;5863812;28;20048;-80
2024/03/09 07:53:38;;;;;;;12.82;7.63;;;;;;;;;;5880036;28;20046;-80
2024/03/09 07:56:29;;;;;;;16.13;9.98;;;;;;;;;;5863307;28;20503;-80
2024/03/09 07:59:20;;;;;;;15.20;8.27;;;;;;;;;;5880163;28;20053;-80
2024/03/09 08:02:12;;;;;;;13.07;6.82;;;;;;;;;;5879663;28;20152;-80
2024/03/09 08:05:04;;;;;;;37.75;18.45;;;;;;;;;;5879541;28;20049;-80
2024/03/09 08:07:55;;;;;;;30.38;15.00;;;;;;;;;;5863698;28;20045;-80
2024/03/09 08:10:46;;;;;;;15.07;10.25;;;;;;;;;;5863162;28;20069;-80
2024/03/09 08:13:40;;;;;;;94.78;35.13;;;;;;;;;;5864217;28;20045;-80
2024/03/09 08:16:33;;;;;;;98.75;29.63;;;;;;;;;;5864247;28;20200;-80
2024/03/09 08:19:23;;;;;;;87.50;23.85;;;;;;;;;;5879049;28;20642;-80
2024/03/09 08:22:14;;;;;;;27.55;11.85;;;;;;;;;;5846885;28;20124;-80
2024/03/09 08:25:15;;;;;;;59.35;23.02;;;;;;;;;;5864594;28;20514;-80
2024/03/09 08:28:08;;;;;;;22.05;9.38;;;;;;;;;;5862670;28;20057;-80
2024/03/09 08:30:59;;;;;;;78.32;27.50;;;;;;;;;;5862877;28;20045;-80
2024/03/09 08:33:51;;;;;;;40.25;18.20;;;;;;;;;;5872699;28;20048;-81
2024/03/09 08:36:42;;;;;;;21.40;10.82;;;;;;;;;;5840644;28;20068;-81
2024/03/09 08:39:33;;;;;;;22.98;13.77;;;;;;;;;;5872505;28;20689;-82
2024/03/09 08:42:24;;;;;;;16.40;8.93;;;;;;;;;;5839378;28;20069;-80
2024/03/09 08:45:15;;;;;;;17.98;9.77;;;;;;;;;;5856127;28;20054;-80
2024/03/09 08:48:07;;;;;;;13.43;8.02;;;;;;;;;;5841232;28;20057;-80
2024/03/09 08:50:59;;;;;;;15.73;8.45;;;;;;;;;;5840721;28;20038;-80
2024/03/09 08:53:50;;;;;;;9.38;5.35;;;;;;;;;;5839872;28;20038;-80
2024/03/09 08:56:41;;;;;;;15.90;9.02;;;;;;;;;;5839087;28;20056;-80
2024/03/09 08:59:32;;;;;;;10.70;5.20;;;;;;;;;;5855651;28;20053;-80
2024/03/09 09:02:23;;;;;;;9.65;4.80;;;;;;;;;;5839085;28;20500;-80
2024/03/09 09:05:14;;;;;;;10.02;5.15;;;;;;;;;;5839449;28;20049;-80
2024/03/09 09:08:05;;;;;;;6.65;4.25;;;;;;;;;;5840326;28;20053;-79
2024/03/09 09:10:56;;;;;;;9.20;4.53;;;;;;;;;;5841332;28;20133;-80
2024/03/09 09:13:48;;;;;;;10.98;5.60;;;;;;;;;;5840791;28;20042;-80
2024/03/09 09:16:40;;;;;;;5.53;3.63;;;;;;;;;;5838959;28;20046;-80
2024/03/09 09:19:31;;;;;;;12.13;6.90;;;;;;;;;;5840245;28;20415;-80
2024/03/09 09:22:22;;;;;;;5.72;4.32;;;;;;;;;;5839634;28;20764;-80
2024/03/09 09:25:13;;;;;;;6.68;4.03;;;;;;;;;;5841382;28;20049;-79
2024/03/09 09:28:06;;;;;;;3.92;2.60;;;;;;;;;;5855309;28;20054;-80
2024/03/09 09:30:56;;;;;;;4.45;3.20;;;;;;;;;;5840613;28;20045;-80
2024/03/09 09:33:49;;;;;;;2.75;2.00;;;;;;;;;;5855226;28;20046;-80
2024/03/09 09:36:40;;;;;;;4.28;2.75;;;;;;;;;;5854996;28;20125;-79
2024/03/09 09:39:34;;;;;;;6.47;2.97;;;;;;;;;;5838427;28;20496;-80
2024/03/09 09:42:30;;;;;;;17.17;9.35;;;;;;;;;;5838917;28;20050;-80
2024/03/09 09:45:22;;;;;;;20.08;8.13;;;;;;;;;;5838373;28;20132;-80
2024/03/09 09:48:14;;;;;;;12.80;5.43;;;;;;;;;;5837301;28;20054;-79
2024/03/09 09:51:06;;;;;;;27.90;10.32;;;;;;;;;;5838098;28;20041;-80
2024/03/09 09:54:02;;;;;;;7.80;5.15;;;;;;;;;;5838420;28;20054;-80
2024/03/09 09:56:56;;;;;;;16.70;8.00;;;;;;;;;;5861121;28;20037;-80
2024/03/09 09:59:47;;;;;;;6.45;3.97;;;;;;;;;;5854468;28;20042;-80
2024/03/09 10:02:39;;;;;;;9.63;7.55;;;;;;;;;;5837558;28;20052;-80
2024/03/09 10:05:31;;;;;;;12.85;6.07;;;;;;;;;;5865525;28;20049;-79
2024/03/09 10:08:22;;;;;;;6.07;3.78;;;;;;;;;;5837750;28;20046;-79
2024/03/09 10:11:17;;;;;;;13.60;8.32;;;;;;;;;;5855429;28;20042;-80
2024/03/09 10:14:08;;;;;;;7.10;5.38;;;;;;;;;;5855090;28;20602;-80
2024/03/09 10:17:07;;;;;;;5.28;3.55;;;;;;;;;;5838885;28;20088;-80
2024/03/09 10:20:02;;;;;;;9.48;6.07;;;;;;;;;;5871052;28;20419;-80
2024/03/09 10:22:54;;;;;;;7.35;3.63;;;;;;;;;;5839558;28;20393;-81
2024/03/09 10:25:45;;;;;;;6.18;4.25;;;;;;;;;;5838639;28;20049;-80
2024/03/09 10:28:37;;;;;;;9.75;4.82;;;;;;;;;;5854287;28;20045;-81
2024/03/09 10:31:28;;;;;;;7.63;4.55;;;;;;;;;;5838000;28;20084;-80
2024/03/09 10:34:18;;;;;;;54.20;25.60;;;;;;;;;;5838556;28;20053;-80
2024/03/09 10:37:17;;;;;;;16.17;9.95;;;;;;;;;;5839441;28;20137;-80
2024/03/09 10:40:12;;;;;;;;;;;;;;;;;;5838731;28;20066;-80
2024/03/09 10:43:11;;;;;;;15.23;5.43;;;;;;;;;;5853749;28;19921;-80
2024/03/09 10:46:04;;;;;;;9.20;6.35;;;;;;;;;;5853982;28;20049;-80
2024/03/09 10:48:58;;;;;;;13.20;8.77;;;;;;;;;;5838506;28;20404;-80
2024/03/09 10:51:54;;;;;;;6.10;4.97;;;;;;;;;;5837879;28;20062;-80
2024/03/09 10:55:02;;;;;;;10.60;4.95;;;;;;;;;;5838366;28;20045;-80
2024/03/09 10:57:54;;;;;;;7.57;4.90;;;;;;;;;;5860809;28;20065;-80
2024/03/09 11:00:49;;;;;;;2.55;1.80;;;;;;;;;;5842294;28;20519;-80
2024/03/09 11:03:45;;;;;;;5.15;2.78;;;;;;;;;;5842377;28;20127;-80
2024/03/09 11:06:36;;;;;;;7.53;2.72;;;;;;;;;;5842038;28;20412;-81
2024/03/09 11:09:29;;;;;;;7.85;3.58;;;;;;;;;;5858237;28;20467;-81
2024/03/09 11:12:21;;;;;;;4.18;2.63;;;;;;;;;;5842263;28;20053;-80
2024/03/09 11:15:13;;;;;;;4.53;2.90;;;;;;;;;;5874176;28;20065;-80
2024/03/09 11:18:10;;;;;;;9.15;4.15;;;;;;;;;;5857778;28;20052;-81
2024/03/09 11:21:04;;;;;;;8.00;3.80;;;;;;;;;;5841586;28;20119;-80
2024/03/09 11:23:59;;;;;;;13.68;4.50;;;;;;;;;;5874599;28;20042;-81
2024/03/09 11:26:53;;;;;;;3.92;2.38;;;;;;;;;;5841376;28;20057;-80
2024/03/09 11:29:44;;;;;;;5.22;4.13;;;;;;;;;;5857306;28;20045;-81
2024/03/09 11:32:36;;;;;;;5.10;3.47;;;;;;;;;;5857501;28;20053;-80
2024/03/09 11:35:35;;;;;;;1.98;1.58;;;;;;;;;;5841359;28;20068;-81
2024/03/09 11:38:27;;;;;;;2.78;1.27;;;;;;;;;;5856627;28;20265;-81
2024/03/09 11:41:25;;;;;;;4.55;3.05;;;;;;;;;;5858221;28;20096;-80
2024/03/09 11:44:20;;;;;;;67.43;35.42;;;;;;;;;;5841107;28;20053;-81
2024/03/09 11:47:11;;;;;;;6.68;4.57;;;;;;;;;;5857855;28;20054;-80
2024/03/09 11:50:02;;;;;;;3.85;1.50;;;;;;;;;;5842432;28;20330;-79
2024/03/09 11:52:55;;;;;;;5.13;2.45;;;;;;;;;;5841644;28;20049;-80
2024/03/09 11:55:48;;;;;;;14.55;6.68;;;;;;;;;;5840927;28;20037;-81
2024/03/09 11:58:39;;;;;;;2.17;1.88;;;;;;;;;;5840307;28;20076;-80
2024/03/09 12:01:30;;;;;;;2.63;1.90;;;;;;;;;;5856696;28;20148;-80
2024/03/09 12:04:21;;;;;;;6.65;4.30;;;;;;;;;;5840674;28;20052;-80
2024/03/09 12:07:12;;;;;;;8.25;2.95;;;;;;;;;;5856849;28;20053;-80
2024/03/09 12:10:04;;;;;;;18.77;6.78;;;;;;;;;;5857027;28;20480;-80
2024/03/09 12:12:54;;;;;;;18.65;4.35;;;;;;;;;;5856818;28;20119;-81
2024/03/09 12:15:46;;;;;;;8.65;4.57;;;;;;;;;;5840386;28;20128;-80
2024/03/09 12:18:37;;;;;;;18.77;7.35;;;;;;;;;;5840489;28;20042;-80
2024/03/09 12:21:28;;;;;;;7.15;4.35;;;;;;;;;;5841496;28;20176;-81
2024/03/09 12:24:21;;;;;;;26.50;9.48;;;;;;;;;;5840374;28;20566;-80
2024/03/09 12:27:12;;;;;;;4.63;2.22;;;;;;;;;;5856716;28;20072;-80
2024/03/09 12:30:09;;;;;;;27.20;13.25;;;;;;;;;;5855524;28;20050;-80
2024/03/09 12:33:01;;;;;;;1.75;1.40;;;;;;;;;;5840085;28;20050;-81
2024/03/09 12:35:57;;;;;;;8.25;4.07;;;;;;;;;;5840132;28;20045;-82
2024/03/09 12:38:48;;;;;;;6.43;3.20;;;;;;;;;;5855557;28;20125;-80
2024/03/09 12:41:39;;;;;;;5.80;3.17;;;;;;;;;;5839405;28;20046;-80
2024/03/09 12:44:40;;;;;;;2.78;2.47;;;;;;;;;;5839528;28;20504;-80
2024/03/09 12:47:31;;;;;;;3.30;2.60;;;;;;;;;;5855992;28;20041;-81
2024/03/09 12:50:23;;;;;;;3.80;2.42;;;;;;;;;;5856227;28;20057;-81
2024/03/09 12:53:14;;;;;;;5.13;3.30;;;;;;;;;;5855805;28;20099;-81
2024/03/09 12:56:06;;;;;;;5.43;2.22;;;;;;;;;;5855903;28;20056;-81
2024/03/09 12:59:00;;;;;;;3.63;2.83;;;;;;;;;;5841516;28;20056;-81
2024/03/09 13:01:51;;;;;;;5.97;2.50;;;;;;;;;;5855966;28;20060;-81
2024/03/09 13:04:48;;;;;;;4.75;2.65;;;;;;;;;;5830251;28;20041;-81
2024/03/09 13:07:39;;;;;;;9.55;3.58;;;;;;;;;;5840161;28;20152;-81
2024/03/09 13:10:30;;;;;;;7.60;3.25;;;;;;;;;;5840524;28;20530;-80
2024/03/09 13:13:21;;;;;;;5.97;3.90;;;;;;;;;;5855260;28;20050;-81
2024/03/09 13:16:12;;;;;;;13.75;5.50;;;;;;;;;;5855882;28;20092;-81
2024/03/09 13:19:06;;;;;;;5.85;4.22;;;;;;;;;;5840440;28;20057;-80
2024/03/09 13:21:57;;;;;;;11.88;4.43;;;;;;;;;;5839862;28;20058;-80
2024/03/09 13:24:52;;;;;;;7.90;5.07;;;;;;;;;;5838524;28;20046;-80
2024/03/09 13:27:43;;;;;;;8.00;3.95;;;;;;;;;;5839990;28;20048;-80
2024/03/09 13:30:39;;;;;;;7.13;4.82;;;;;;;;;;5840365;28;20072;-81
2024/03/09 13:33:41;;;;;;;10.63;4.90;;;;;;;;;;5840310;28;20056;-80
2024/03/09 13:36:32;;;;;;;6.65;4.78;;;;;;;;;;5840052;28;20062;-80
2024/03/09 13:39:27;;;;;;;7.18;3.85;;;;;;;;;;5838482;28;20046;-80
2024/03/09 13:42:20;;;;;;;10.43;4.72;;;;;;;;;;5838485;28;20172;-80
2024/03/09 13:45:11;;;;;;;15.13;5.90;;;;;;;;;;5838899;28;20060;-80
2024/03/09 13:48:07;;;;;;;8.68;5.90;;;;;;;;;;5838432;28;20042;-79
2024/03/09 13:50:58;;;;;;;10.10;5.18;;;;;;;;;;5855301;28;20491;-80
2024/03/09 13:53:49;;;;;;;13.55;6.53;;;;;;;;;;5838401;28;20515;-80
2024/03/09 13:56:42;;;;;;;9.50;4.53;;;;;;;;;;5854555;28;20053;-81
2024/03/09 13:59:35;;;;;;;8.18;5.72;;;;;;;;;;5839669;28;20042;-80
2024/03/09 14:02:26;;;;;;;10.77;4.65;;;;;;;;;;5837901;28;20075;-80
2024/03/09 14:05:24;;;;;;;10.85;5.60;;;;;;;;;;5854527;28;20058;-80
2024/03/09 14:08:15;;;;;;;;;;;;;;;;;;5838544;28;20128;-80
2024/03/09 14:11:08;;;;;;;7.05;5.00;;;;;;;;;;5854489;28;19925;-80
2024/03/09 14:14:00;;;;;;;10.88;6.85;;;;;;;;;;5849874;28;20050;-80
2024/03/09 14:16:53;;;;;;;11.77;6.55;;;;;;;;;;5844954;28;20180;-80
2024/03/09 14:19:47;;;;;;;14.68;6.25;;;;;;;;;;5848479;28;20045;-80
2024/03/09 14:22:38;;;;;;;8.25;5.55;;;;;;;;;;5844986;28;20411;-81
2024/03/09 14:25:29;;;;;;;15.60;7.80;;;;;;;;;;5856232;28;20045;-81
2024/03/09 14:28:22;;;;;;;10.70;6.53;;;;;;;;;;5839196;28;20037;-80
2024/03/09 14:31:15;;;;;;;10.82;6.95;;;;;;;;;;5838128;28;20069;-80
2024/03/09 14:34:07;;;;;;;11.45;5.90;;;;;;;;;;5838100;28;20144;-80
2024/03/09 14:37:00;;;;;;;9.57;6.60;;;;;;;;;;5850735;28;20080;-80
2024/03/09 14:39:51;;;;;;;19.27;5.80;;;;;;;;;;5840348;28;20171;-80
2024/03/09 14:42:48;;;;;;;9.63;6.32;;;;;;;;;;5848988;28;20041;-80
2024/03/09 14:45:39;;;;;;;10.20;7.15;;;;;;;;;;5869833;28;20064;-80
2024/03/09 14:48:31;;;;;;;20.13;7.47;;;;;;;;;;5871983;28;20430;-80
2024/03/09 14:51:22;;;;;;;12.18;5.75;;;;;;;;;;5855774;28;20418;-80
2024/03/09 14:54:16;;;;;;;8.88;6.63;;;;;;;;;;5877865;28;20050;-80
2024/03/09 14:57:07;;;;;;;13.38;7.68;;;;;;;;;;5880038;28;20514;-79
2024/03/09 14:59:58;;;;;;;9.73;5.95;;;;;;;;;;5869772;28;20049;-80
2024/03/09 15:02:52;;;;;;;8.38;4.78;;;;;;;;;;5857884;28;20395;-80
2024/03/09 15:05:43;;;;;;;8.93;6.53;;;;;;;;;;5886937;28;20514;-80
2024/03/09 15:08:34;;;;;;;12.98;5.85;;;;;;;;;;5887968;28;20045;-80
2024/03/09 15:11:24;;;;;;;7.32;5.18;;;;;;;;;;5887618;28;20375;-80
2024/03/09 15:14:15;;;;;;;13.43;5.55;;;;;;;;;;5887864;28;20048;-80
2024/03/09 15:17:13;;;;;;;9.60;5.18;;;;;;;;;;5886938;28;20132;-80
2024/03/09 15:20:05;;;;;;;9.53;5.10;;;;;;;;;;5865223;28;20053;-80
2024/03/09 15:22:56;;;;;;;7.22;5.13;;;;;;;;;;5865568;28;20288;-80
2024/03/09 15:25:47;;;;;;;9.68;6.03;;;;;;;;;;5881294;28;20045;-80
2024/03/09 15:28:41;;;;;;;9.18;7.07;;;;;;;;;;5881594;28;20056;-80
2024/03/09 15:31:33;;;;;;;7.78;5.85;;;;;;;;;;5864715;28;20076;-81
2024/03/09 15:34:24;;;;;;;14.98;6.60;;;;;;;;;;5865955;28;20073;-80
2024/03/09 15:37:16;;;;;;;15.00;6.70;;;;;;;;;;5865496;28;20053;-80
2024/03/09 15:40:12;;;;;;;7.93;6.13;;;;;;;;;;5863985;28;20053;-79
2024/03/09 15:43:06;;;;;;;9.75;6.25;;;;;;;;;;5864544;28;20049;-80
2024/03/09 15:45:57;;;;;;;7.93;4.97;;;;;;;;;;5863917;28;20049;-80
2024/03/09 15:48:48;;;;;;;8.82;6.72;;;;;;;;;;5847685;28;20056;-80
2024/03/09 15:51:40;;;;;;;8.13;5.05;;;;;;;;;;5863949;28;20046;-81
2024/03/09 15:54:30;;;;;;;12.23;6.72;;;;;;;;;;5864794;28;20411;-81
2024/03/09 15:57:21;;;;;;;7.57;6.60;;;;;;;;;;5863461;28;20056;-80
2024/03/09 16:00:13;;;;;;;13.57;8.15;;;;;;;;;;5864965;28;20050;-80
2024/03/09 16:03:04;;;;;;;10.13;6.90;;;;;;;;;;5863606;28;20072;-81
2024/03/09 16:05:55;;;;;;;10.88;7.35;;;;;;;;;;5865417;28;20412;-81
2024/03/09 16:08:45;;;;;;;11.27;8.02;;;;;;;;;;5847118;28;20451;-81
2024/03/09 16:11:37;;;;;;;12.13;8.45;;;;;;;;;;5865362;28;20387;-81
2024/03/09 16:14:29;;;;;;;15.40;8.27;;;;;;;;;;5863672;28;20049;-81
2024/03/09 16:17:20;;;;;;;16.55;9.73;;;;;;;;;;5863560;28;20415;-81
2024/03/09 16:20:11;;;;;;;33.90;19.40;;;;;;;;;;5863343;28;20057;-81
2024/03/09 16:23:05;;;;;;;33.40;18.55;;;;;;;;;;5863111;28;20049;-80
2024/03/09 16:25:56;;;;;;;18.90;12.02;;;;;;;;;;5863565;28;20052;-81
2024/03/09 16:28:47;;;;;;;34.83;17.80;;;;;;;;;;5864630;28;20450;-81
2024/03/09 16:31:38;;;;;;;29.33;15.85;;;;;;;;;;5863024;28;20146;-80
2024/03/09 16:34:29;;;;;;;21.50;12.25;;;;;;;;;;5863137;28;20117;-81
2024/03/09 16:37:20;;;;;;;36.25;15.77;;;;;;;;;;5846657;28;20343;-81
2024/03/09 16:40:14;;;;;;;46.95;23.50;;;;;;;;;;5862643;28;20064;-80
2024/03/09 16:43:08;;;;;;;20.15;10.02;;;;;;;;;;5864305;28;20603;-80
2024/03/09 16:45:59;;;;;;;46.25;24.30;;;;;;;;;;5863003;28;20065;-80
2024/03/09 16:48:51;;;;;;;54.40;21.77;;;;;;;;;;5862325;28;20056;-81
2024/03/09 16:51:42;;;;;;;30.77;14.93;;;;;;;;;;5862739;28;20046;-80
2024/03/09 16:54:34;;;;;;;28.13;16.17;;;;;;;;;;5845897;28;20060;-80
2024/03/09 16:57:25;;;;;;;28.20;16.95;;;;;;;;;;5861960;28;20049;-80